Time;durP1;ratioP1;P1;durP2;ratioP2;P2;SDS_P1;SDS_P2;PMS_P1;PMS_P2;Temp;Humidity;BMP_temperature;BMP_pressure;BME280_temperature;BME280_humidity;BME280_pressure;Samples;Min_cycle;Max_cycle;Signal;HPM_P1;HPM_P2
2022/06/21 00:02:04;;;;;;;0.70;0.60;;;;;;;;;;5033132;28;20029;-70
2022/06/21 00:04:30;;;;;;;1.88;0.60;;;;;;;;;;5033103;28;20029;-70
2022/06/21 00:06:58;;;;;;;2.10;0.63;;;;;;;;;;5031429;28;20049;-68
2022/06/21 00:09:24;;;;;;;2.88;0.70;;;;;;;;;;5030411;28;20079;-67
2022/06/21 00:11:50;;;;;;;3.75;0.77;;;;;;;;;;5032564;28;20386;-69
2022/06/21 00:14:16;;;;;;;1.38;0.60;;;;;;;;;;5033056;28;20441;-68
2022/06/21 00:16:42;;;;;;;1.23;0.68;;;;;;;;;;5030507;28;20095;-68
2022/06/21 00:19:13;;;;;;;0.80;0.60;;;;;;;;;;5030929;28;20097;-69
2022/06/21 00:21:40;;;;;;;3.75;1.27;;;;;;;;;;5023266;28;20018;-69
2022/06/21 00:24:06;;;;;;;2.75;0.80;;;;;;;;;;5033248;28;20083;-69
2022/06/21 00:26:32;;;;;;;2.53;0.75;;;;;;;;;;5030954;28;20430;-67
2022/06/21 00:28:59;;;;;;;3.63;0.63;;;;;;;;;;5028934;28;20149;-66
2022/06/21 00:31:27;;;;;;;1.08;0.70;;;;;;;;;;5029951;28;20417;-67
2022/06/21 00:33:54;;;;;;;1.85;0.68;;;;;;;;;;5033302;28;20462;-68
2022/06/21 00:36:21;;;;;;;1.30;0.90;;;;;;;;;;5031888;28;20051;-68
2022/06/21 00:38:47;;;;;;;1.10;0.80;;;;;;;;;;5031003;28;20083;-68
2022/06/21 00:41:15;;;;;;;1.63;0.70;;;;;;;;;;5032849;28;20045;-70
2022/06/21 00:43:44;;;;;;;1.13;0.60;;;;;;;;;;5032903;28;20044;-71
2022/06/21 00:46:21;;;;;;;0.95;0.60;;;;;;;;;;5030373;28;20033;-70
2022/06/21 00:48:48;;;;;;;1.38;0.73;;;;;;;;;;5030952;28;20022;-70
2022/06/21 00:51:20;;;;;;;1.17;0.88;;;;;;;;;;5032875;28;20490;-70
2022/06/21 00:53:49;;;;;;;1.38;1.00;;;;;;;;;;5030896;28;20581;-68
2022/06/21 00:56:15;;;;;;;1.15;0.82;;;;;;;;;;5033049;28;20037;-69
2022/06/21 00:58:41;;;;;;;0.82;0.60;;;;;;;;;;5028211;28;20040;-70
2022/06/21 01:01:07;;;;;;;0.80;0.77;;;;;;;;;;5036161;28;20398;-70
2022/06/21 01:03:35;;;;;;;2.15;0.70;;;;;;;;;;5034735;28;20018;-69
2022/06/21 01:06:03;;;;;;;2.75;0.73;;;;;;;;;;5034727;28;20024;-69
2022/06/21 01:08:32;;;;;;;0.68;0.68;;;;;;;;;;5036626;28;20032;-69
2022/06/21 01:11:01;;;;;;;1.25;0.68;;;;;;;;;;5035669;28;20029;-59
2022/06/21 01:13:28;;;;;;;1.15;0.70;;;;;;;;;;5035697;28;20026;-66
2022/06/21 01:15:54;;;;;;;1.13;0.80;;;;;;;;;;5034762;28;20026;-68
2022/06/21 01:18:21;;;;;;;1.30;0.70;;;;;;;;;;5034437;28;20033;-65
2022/06/21 01:20:51;;;;;;;0.95;0.70;;;;;;;;;;5034990;28;20026;-67
2022/06/21 01:23:27;;;;;;;1.00;0.60;;;;;;;;;;5035051;28;20052;-66
2022/06/21 01:26:13;;;;;;;1.75;0.70;;;;;;;;;;5034250;28;20036;-66
2022/06/21 01:28:39;;;;;;;0.60;0.50;;;;;;;;;;5035818;28;20079;-66
2022/06/21 01:31:06;;;;;;;2.67;0.80;;;;;;;;;;5018723;28;20415;-67
2022/06/21 01:33:34;;;;;;;1.48;0.90;;;;;;;;;;5033725;28;20493;-67
2022/06/21 01:36:21;;;;;;;1.52;0.75;;;;;;;;;;5035870;28;20104;-67
2022/06/21 01:38:54;;;;;;;0.75;0.75;;;;;;;;;;5036324;28;20105;-66
2022/06/21 01:41:23;;;;;;;1.20;0.65;;;;;;;;;;5034295;28;20446;-68
2022/06/21 01:43:52;;;;;;;2.15;0.70;;;;;;;;;;5032450;28;20052;-68
2022/06/21 01:46:21;;;;;;;1.05;0.70;;;;;;;;;;5033906;28;20037;-68
2022/06/21 01:48:52;;;;;;;1.33;0.90;;;;;;;;;;5030208;28;20049;-68
2022/06/21 01:51:23;;;;;;;1.48;0.50;;;;;;;;;;5035752;28;20033;-68
2022/06/21 01:53:50;;;;;;;1.30;0.55;;;;;;;;;;5032613;28;20026;-68
2022/06/21 01:56:18;;;;;;;1.08;0.82;;;;;;;;;;5035839;28;20071;-69
2022/06/21 01:58:51;;;;;;;0.70;0.50;;;;;;;;;;5035324;28;20113;-68
2022/06/21 02:01:26;;;;;;;2.00;0.80;;;;;;;;;;5030934;28;20052;-67
2022/06/21 02:03:54;;;;;;;0.68;0.63;;;;;;;;;;5033357;28;20116;-67
2022/06/21 02:06:21;;;;;;;1.15;0.60;;;;;;;;;;5034690;28;20482;-68
2022/06/21 02:08:49;;;;;;;1.77;0.70;;;;;;;;;;5035526;28;20488;-68
2022/06/21 02:11:18;;;;;;;2.95;0.80;;;;;;;;;;5033902;28;20017;-68
2022/06/21 02:13:46;;;;;;;2.53;0.70;;;;;;;;;;5035532;28;20028;-67
2022/06/21 02:16:16;;;;;;;1.80;0.60;;;;;;;;;;5035282;28;20094;-69
2022/06/21 02:18:44;;;;;;;0.90;0.70;;;;;;;;;;5031993;28;20021;-67
2022/06/21 02:21:11;;;;;;;1.17;0.60;;;;;;;;;;5033010;28;20025;-68
2022/06/21 02:23:38;;;;;;;1.40;0.73;;;;;;;;;;5035231;28;20481;-68
2022/06/21 02:26:04;;;;;;;1.98;0.75;;;;;;;;;;5035424;28;20053;-64
2022/06/21 02:28:30;;;;;;;1.40;0.80;;;;;;;;;;5030523;28;20080;-70
2022/06/21 02:30:58;;;;;;;1.10;0.70;;;;;;;;;;5028510;28;20035;-71
2022/06/21 02:33:27;;;;;;;1.17;0.63;;;;;;;;;;5028824;28;20017;-69
2022/06/21 02:36:14;;;;;;;0.60;0.55;;;;;;;;;;5033335;28;21667;-70
2022/06/21 02:38:46;;;;;;;1.52;0.82;;;;;;;;;;5034936;28;20022;-67
2022/06/21 02:41:14;;;;;;;2.65;0.70;;;;;;;;;;5030759;28;20124;-68
2022/06/21 02:43:42;;;;;;;1.50;0.60;;;;;;;;;;5034222;28;20096;-62
2022/06/21 02:46:10;;;;;;;1.90;0.70;;;;;;;;;;5034744;28;20514;-67
2022/06/21 02:48:44;;;;;;;1.70;0.70;;;;;;;;;;5031537;28;20040;-68
2022/06/21 02:51:22;;;;;;;1.45;0.60;;;;;;;;;;5034618;28;20039;-65
2022/06/21 02:53:48;;;;;;;1.08;0.60;;;;;;;;;;5033446;28;20040;-67
2022/06/21 02:56:23;;;;;;;1.88;0.70;;;;;;;;;;5033056;28;20029;-67
2022/06/21 02:58:51;;;;;;;1.35;0.85;;;;;;;;;;5032879;28;20028;-68
2022/06/21 03:01:21;;;;;;;3.22;0.77;;;;;;;;;;5032542;28;20026;-67
2022/06/21 03:03:48;;;;;;;1.30;0.70;;;;;;;;;;5034470;28;20025;-68
2022/06/21 03:06:16;;;;;;;1.13;0.70;;;;;;;;;;5034414;28;20033;-68
2022/06/21 03:08:51;;;;;;;1.38;0.50;;;;;;;;;;5031151;28;20695;-62
2022/06/21 03:11:18;;;;;;;2.55;0.90;;;;;;;;;;5031602;28;20040;-67
2022/06/21 03:13:44;;;;;;;2.40;0.90;;;;;;;;;;5025226;28;20018;-68
2022/06/21 03:16:12;;;;;;;0.90;0.57;;;;;;;;;;5033301;28;20041;-67
2022/06/21 03:18:41;;;;;;;1.08;0.70;;;;;;;;;;5031720;28;20021;-67
2022/06/21 03:21:07;;;;;;;1.65;0.60;;;;;;;;;;5032303;28;20030;-66
2022/06/21 03:23:34;;;;;;;1.08;0.80;;;;;;;;;;5034165;28;20025;-66
2022/06/21 03:26:04;;;;;;;1.27;0.80;;;;;;;;;;5034177;28;20485;-67
2022/06/21 03:28:35;;;;;;;2.42;1.05;;;;;;;;;;5027693;28;20504;-66
2022/06/21 03:31:12;;;;;;;1.02;0.70;;;;;;;;;;5032102;28;20029;-70
2022/06/21 03:33:40;;;;;;;1.67;0.70;;;;;;;;;;5031409;28;20060;-68
2022/06/21 03:36:08;;;;;;;3.65;0.68;;;;;;;;;;5033477;28;20064;-68
2022/06/21 03:38:34;;;;;;;1.40;0.50;;;;;;;;;;5033408;28;20064;-69
2022/06/21 03:43:47;;;;;;;2.33;0.80;;;;;;;;;;5029017;28;20064;-67
2022/06/21 03:46:17;;;;;;;1.73;0.70;;;;;;;;;;5030738;28;20029;-68
2022/06/21 03:48:47;;;;;;;2.53;0.80;;;;;;;;;;5031712;28;20373;-68
2022/06/21 03:51:14;;;;;;;0.63;0.55;;;;;;;;;;5031828;28;20101;-69
2022/06/21 03:53:45;;;;;;;2.97;1.13;;;;;;;;;;5031692;28;20532;-68
2022/06/21 03:56:16;;;;;;;1.40;0.80;;;;;;;;;;5033091;28;20481;-68
2022/06/21 03:58:46;;;;;;;1.17;0.80;;;;;;;;;;5033736;28;20025;-69
2022/06/21 04:01:31;;;;;;;1.55;0.70;;;;;;;;;;5030682;28;20064;-68
2022/06/21 04:04:05;;;;;;;0.90;0.70;;;;;;;;;;5029131;28;20083;-68
2022/06/21 04:06:31;;;;;;;1.52;0.75;;;;;;;;;;5025776;28;20121;-70
2022/06/21 04:08:57;;;;;;;2.85;0.90;;;;;;;;;;5033425;28;20109;-70
2022/06/21 04:11:26;;;;;;;1.20;0.70;;;;;;;;;;5033351;28;20454;-69
2022/06/21 04:13:52;;;;;;;1.17;0.77;;;;;;;;;;5029894;28;20504;-69
2022/06/21 04:16:57;;;;;;;2.15;0.60;;;;;;;;;;5033404;28;20029;-67
2022/06/21 04:19:35;;;;;;;2.20;0.70;;;;;;;;;;4989535;28;20450;-69
2022/06/21 04:22:07;;;;;;;1.95;0.88;;;;;;;;;;4989521;28;20036;-67
2022/06/21 04:24:33;;;;;;;;;;;;;;;;;;4992042;28;20518;-67
2022/06/21 04:27:06;;;;;;;2.85;1.33;;;;;;;;;;4991327;28;19965;-68
2022/06/21 04:29:36;;;;;;;1.33;0.70;;;;;;;;;;4989667;28;20125;-68
2022/06/21 04:32:14;;;;;;;3.92;0.98;;;;;;;;;;4989057;28;20034;-68
2022/06/21 04:35:03;;;;;;;2.80;0.77;;;;;;;;;;4987829;28;20026;-67
2022/06/21 04:37:36;;;;;;;2.03;1.00;;;;;;;;;;4972857;28;20043;-68
2022/06/21 04:40:02;;;;;;;1.42;0.85;;;;;;;;;;4990410;28;20117;-67
2022/06/21 04:42:31;;;;;;;2.85;1.33;;;;;;;;;;4991840;28;20479;-68
2022/06/21 04:45:08;;;;;;;2.25;1.10;;;;;;;;;;4989660;28;20038;-68
2022/06/21 04:47:41;;;;;;;4.22;1.25;;;;;;;;;;4974602;28;20173;-68
2022/06/21 04:50:13;;;;;;;2.00;0.80;;;;;;;;;;5010225;28;20037;-68
2022/06/21 04:52:54;;;;;;;2.55;1.15;;;;;;;;;;5030218;28;20505;-67
2022/06/21 04:55:23;;;;;;;6.17;1.30;;;;;;;;;;5032519;28;20185;-69
2022/06/21 04:57:49;;;;;;;2.25;1.08;;;;;;;;;;5023935;28;20040;-69
2022/06/21 05:00:17;;;;;;;1.67;0.88;;;;;;;;;;5032657;28;20070;-69
2022/06/21 05:02:55;;;;;;;2.22;1.10;;;;;;;;;;5033004;28;20036;-68
2022/06/21 05:05:26;;;;;;;1.67;0.90;;;;;;;;;;5029986;28;20509;-69
2022/06/21 05:07:52;;;;;;;;;;;;;;;;;;5031185;28;20036;-68
2022/06/21 05:10:24;;;;;;;2.25;1.17;;;;;;;;;;5030535;28;20377;-68
2022/06/21 05:12:51;;;;;;;4.32;1.10;;;;;;;;;;5029423;28;20382;-66
2022/06/21 05:15:22;;;;;;;2.10;1.10;;;;;;;;;;5031233;28;20025;-67
2022/06/21 05:17:59;;;;;;;2.42;1.63;;;;;;;;;;5031777;28;20048;-67
2022/06/21 05:20:28;;;;;;;9.98;1.42;;;;;;;;;;5029251;28;20466;-67
2022/06/21 05:22:56;;;;;;;3.85;1.35;;;;;;;;;;5030323;28;20044;-67
2022/06/21 05:25:25;;;;;;;4.30;1.50;;;;;;;;;;5031910;28;20029;-68
2022/06/21 05:27:53;;;;;;;2.33;1.20;;;;;;;;;;5031325;28;20030;-57
2022/06/21 05:30:24;;;;;;;1.98;0.95;;;;;;;;;;5019711;28;20445;-69
2022/06/21 05:32:52;;;;;;;3.00;1.30;;;;;;;;;;5032410;28;20044;-66
2022/06/21 05:35:21;;;;;;;1.77;0.93;;;;;;;;;;5032059;28;20101;-69
2022/06/21 05:37:52;;;;;;;3.17;1.30;;;;;;;;;;5028888;28;20036;-73
2022/06/21 05:40:23;;;;;;;3.08;1.52;;;;;;;;;;5032244;28;20029;-70
2022/06/21 05:42:49;;;;;;;2.58;1.48;;;;;;;;;;5030690;28;20037;-69
2022/06/21 05:45:17;;;;;;;6.32;0.90;;;;;;;;;;5032664;28;20045;-66
2022/06/21 05:47:44;;;;;;;3.45;1.05;;;;;;;;;;5028277;28;20041;-71
2022/06/21 05:50:13;;;;;;;1.92;1.23;;;;;;;;;;5035649;28;20025;-64
2022/06/21 05:52:45;;;;;;;4.60;1.63;;;;;;;;;;5035952;28;20021;-67
2022/06/21 05:55:19;;;;;;;5.18;1.27;;;;;;;;;;5034703;28;20034;-70
2022/06/21 05:57:49;;;;;;;2.42;1.00;;;;;;;;;;5034190;28;20029;-66
2022/06/21 06:00:26;;;;;;;2.13;1.15;;;;;;;;;;5032868;28;20026;-60
2022/06/21 06:02:55;;;;;;;3.30;0.90;;;;;;;;;;5033296;28;20026;-69
2022/06/21 06:05:25;;;;;;;2.22;1.10;;;;;;;;;;5033390;28;20509;-68
2022/06/21 06:07:56;;;;;;;2.35;1.23;;;;;;;;;;5035092;28;20044;-68
2022/06/21 06:10:23;;;;;;;4.10;1.48;;;;;;;;;;5035150;28;20100;-70
2022/06/21 06:12:58;;;;;;;4.22;1.13;;;;;;;;;;5034337;28;20044;-63
2022/06/21 06:15:26;;;;;;;3.30;0.88;;;;;;;;;;5025086;28;20026;-67
2022/06/21 06:17:55;;;;;;;3.22;1.10;;;;;;;;;;5035211;28;20041;-70
2022/06/21 06:20:36;;;;;;;1.75;0.90;;;;;;;;;;5035344;28;20091;-69
2022/06/21 06:23:08;;;;;;;4.95;1.15;;;;;;;;;;5034636;28;20496;-70
2022/06/21 06:25:44;;;;;;;1.63;1.00;;;;;;;;;;5029683;28;20026;-68
2022/06/21 06:28:25;;;;;;;3.30;0.98;;;;;;;;;;5034236;28;20048;-69
2022/06/21 06:31:04;;;;;;;3.65;1.00;;;;;;;;;;5032507;28;20480;-69
2022/06/21 06:33:34;;;;;;;2.83;1.02;;;;;;;;;;5033987;28;20030;-70
2022/06/21 06:36:02;;;;;;;3.50;1.25;;;;;;;;;;5032615;28;20051;-69
2022/06/21 06:38:29;;;;;;;2.40;0.90;;;;;;;;;;5030895;28;20022;-70
2022/06/21 06:41:23;;;;;;;1.98;0.82;;;;;;;;;;5032489;28;20056;-70
2022/06/21 06:43:58;;;;;;;5.03;1.25;;;;;;;;;;5024623;28;20068;-66
2022/06/21 06:46:29;;;;;;;1.05;0.88;;;;;;;;;;5032629;28;20029;-69
2022/06/21 06:48:58;;;;;;;5.13;1.10;;;;;;;;;;5032009;28;20026;-70
2022/06/21 06:51:54;;;;;;;1.45;0.90;;;;;;;;;;5034289;28;20026;-69
2022/06/21 06:54:42;;;;;;;2.92;0.95;;;;;;;;;;5024467;28;20065;-70
2022/06/21 06:57:14;;;;;;;2.35;0.90;;;;;;;;;;5033450;28;20465;-69
2022/06/21 06:59:41;;;;;;;4.78;0.85;;;;;;;;;;5033927;28;20041;-70
2022/06/21 07:02:17;;;;;;;3.10;1.08;;;;;;;;;;5032030;28;20021;-70
2022/06/21 07:04:45;;;;;;;2.55;0.98;;;;;;;;;;5033050;28;20029;-70
2022/06/21 07:07:23;;;;;;;2.17;0.98;;;;;;;;;;5031375;28;20029;-70
2022/06/21 07:09:51;;;;;;;3.05;1.48;;;;;;;;;;5032853;28;20071;-57
2022/06/21 07:12:23;;;;;;;3.75;1.17;;;;;;;;;;5032846;28;20064;-70
2022/06/21 07:14:48;;;;;;;;;;;;;;;;;;5032748;28;20025;-59
2022/06/21 07:17:19;;;;;;;3.13;1.48;;;;;;;;;;5032330;28;20277;-69
2022/06/21 07:19:45;;;;;;;3.72;1.10;;;;;;;;;;5032340;28;20483;-70
2022/06/21 07:22:19;;;;;;;1.95;1.05;;;;;;;;;;5031871;28;20046;-70
2022/06/21 07:24:54;;;;;;;6.38;1.80;;;;;;;;;;5032766;28;20025;-70
2022/06/21 07:27:21;;;;;;;4.15;1.27;;;;;;;;;;5033214;28;20040;-68
2022/06/21 07:29:56;;;;;;;2.65;1.10;;;;;;;;;;5032459;28;20053;-65
2022/06/21 07:32:24;;;;;;;2.38;0.93;;;;;;;;;;5032715;28;20470;-69
2022/06/21 07:34:53;;;;;;;2.88;1.20;;;;;;;;;;5031838;28;20048;-56
2022/06/21 07:37:28;;;;;;;5.13;1.10;;;;;;;;;;5032273;28;20056;-70
2022/06/21 07:40:00;;;;;;;2.25;1.30;;;;;;;;;;5031353;28;20026;-68
2022/06/21 07:42:31;;;;;;;1.98;0.85;;;;;;;;;;5030667;28;20548;-71
2022/06/21 07:45:03;;;;;;;3.67;1.23;;;;;;;;;;5031405;28;20041;-71
2022/06/21 07:47:29;;;;;;;;;;;;;;;;;;5025293;28;20076;-71
2022/06/21 07:49:58;;;;;;;4.30;1.02;;;;;;;;;;5031093;28;19948;-70
2022/06/21 07:52:29;;;;;;;2.70;1.10;;;;;;;;;;5031896;28;20017;-67
2022/06/21 07:54:57;;;;;;;4.20;1.20;;;;;;;;;;5031102;28;20091;-70
2022/06/21 07:57:28;;;;;;;4.15;1.45;;;;;;;;;;5032005;28;20037;-71
2022/06/21 07:59:58;;;;;;;3.17;1.67;;;;;;;;;;5022638;28;20034;-70
2022/06/21 08:07:59;;;;;;;2.65;1.00;;;;;;;;;;5030868;28;20096;-71
2022/06/21 08:10:32;;;;;;;4.15;1.52;;;;;;;;;;5031813;28;20053;-71
2022/06/21 08:12:58;;;;;;;2.50;1.00;;;;;;;;;;5030927;28;20025;-71
2022/06/21 08:15:27;;;;;;;1.33;0.82;;;;;;;;;;5031896;28;20516;-71
2022/06/21 08:18:00;;;;;;;1.85;0.80;;;;;;;;;;5031381;28;20031;-59
2022/06/21 08:20:48;;;;;;;4.10;1.38;;;;;;;;;;5031698;28;20029;-71
2022/06/21 08:23:22;;;;;;;1.60;0.75;;;;;;;;;;5031133;28;20125;-69
2022/06/21 08:25:48;;;;;;;5.47;1.50;;;;;;;;;;5030188;28;20029;-71
2022/06/21 08:28:33;;;;;;;4.53;1.10;;;;;;;;;;5030284;28;20034;-71
2022/06/21 08:31:02;;;;;;;4.10;1.45;;;;;;;;;;5030979;28;20032;-71
2022/06/21 08:33:34;;;;;;;4.25;1.20;;;;;;;;;;5031198;28;20466;-71
2022/06/21 08:36:02;;;;;;;2.13;1.00;;;;;;;;;;5029404;28;20033;-71
2022/06/21 08:38:37;;;;;;;2.80;1.10;;;;;;;;;;5031720;28;20025;-69
2022/06/21 08:41:03;;;;;;;3.42;1.20;;;;;;;;;;5030875;28;20025;-71
2022/06/21 08:43:47;;;;;;;2.70;1.38;;;;;;;;;;5031347;28;20024;-71
2022/06/21 08:46:21;;;;;;;2.20;1.15;;;;;;;;;;5030614;28;20645;-71
2022/06/21 08:48:53;;;;;;;1.50;1.10;;;;;;;;;;5031581;28;20076;-71
2022/06/21 08:51:38;;;;;;;3.22;1.10;;;;;;;;;;5031001;28;20100;-71
2022/06/21 08:54:13;;;;;;;2.75;1.00;;;;;;;;;;5024042;28;20155;-70
2022/06/21 08:57:02;;;;;;;2.05;1.02;;;;;;;;;;5014504;28;20476;-71
2022/06/21 08:59:45;;;;;;;3.08;1.02;;;;;;;;;;5026615;28;20359;-71
2022/06/21 09:02:11;;;;;;;2.65;1.08;;;;;;;;;;5031143;28;20022;-71
2022/06/21 09:04:41;;;;;;;10.20;1.58;;;;;;;;;;5031481;28;20374;-70
2022/06/21 09:07:25;;;;;;;3.88;1.33;;;;;;;;;;5030553;28;20497;-70
2022/06/21 09:10:00;;;;;;;2.10;1.20;;;;;;;;;;5031545;28;20025;-71
2022/06/21 09:12:45;;;;;;;2.75;1.05;;;;;;;;;;5023706;28;20033;-71
2022/06/21 09:15:37;;;;;;;2.78;1.10;;;;;;;;;;5030098;28;20440;-71
2022/06/21 09:18:13;;;;;;;1.73;1.10;;;;;;;;;;5027112;28;20045;-70
2022/06/21 09:20:45;;;;;;;5.13;1.10;;;;;;;;;;5035259;28;20022;-70
2022/06/21 09:23:11;;;;;;;2.97;1.20;;;;;;;;;;5026313;28;20497;-71
2022/06/21 09:25:44;;;;;;;3.30;1.00;;;;;;;;;;5034934;28;20425;-71
2022/06/21 09:28:29;;;;;;;4.45;1.42;;;;;;;;;;5033653;28;20049;-70
2022/06/21 09:31:04;;;;;;;5.03;1.80;;;;;;;;;;5034141;28;20060;-70
2022/06/21 09:33:45;;;;;;;2.35;0.90;;;;;;;;;;5029637;28;20033;-71
2022/06/21 09:36:11;;;;;;;3.03;1.30;;;;;;;;;;5033778;28;21731;-71
2022/06/21 09:38:49;;;;;;;2.60;1.05;;;;;;;;;;5034858;28;20017;-71
2022/06/21 09:41:28;;;;;;;3.38;1.30;;;;;;;;;;5030679;28;20493;-70
2022/06/21 09:44:01;;;;;;;2.97;0.98;;;;;;;;;;5034008;28;20060;-60
2022/06/21 09:46:47;;;;;;;2.90;1.10;;;;;;;;;;5032849;28;20025;-71
2022/06/21 09:49:20;;;;;;;2.80;0.85;;;;;;;;;;5031521;28;20033;-70
2022/06/21 09:51:52;;;;;;;2.13;1.00;;;;;;;;;;5032912;28;20032;-71
2022/06/21 09:54:31;;;;;;;3.75;1.20;;;;;;;;;;5033069;28;20481;-70
2022/06/21 09:56:57;;;;;;;3.42;1.20;;;;;;;;;;5026887;28;20025;-57
2022/06/21 09:59:34;;;;;;;2.30;1.00;;;;;;;;;;5031178;28;20060;-71
2022/06/21 10:02:10;;;;;;;4.35;1.67;;;;;;;;;;5035433;28;20072;-71
2022/06/21 10:04:42;;;;;;;5.18;1.17;;;;;;;;;;5034731;28;20013;-71
2022/06/21 10:07:35;;;;;;;3.15;1.88;;;;;;;;;;5031759;28;20041;-69
2022/06/21 10:10:03;;;;;;;3.40;1.48;;;;;;;;;;5010444;28;20037;-69
2022/06/21 10:12:29;;;;;;;4.78;1.45;;;;;;;;;;5033344;28;20037;-71
2022/06/21 10:15:04;;;;;;;2.85;1.20;;;;;;;;;;5033942;28;20044;-71
2022/06/21 10:17:49;;;;;;;16.55;1.77;;;;;;;;;;5033730;28;20048;-69
2022/06/21 10:20:18;;;;;;;3.10;1.30;;;;;;;;;;5032755;28;20605;-67
2022/06/21 10:23:06;;;;;;;4.18;1.58;;;;;;;;;;5031535;28;20104;-66
2022/06/21 10:25:55;;;;;;;5.57;1.10;;;;;;;;;;5029767;28;20018;-67
2022/06/21 10:28:40;;;;;;;2.92;1.20;;;;;;;;;;5033796;28;21205;-66
2022/06/21 10:31:06;;;;;;;6.18;1.33;;;;;;;;;;5032806;28;20547;-66
2022/06/21 10:33:49;;;;;;;2.13;1.33;;;;;;;;;;5033001;28;20025;-68
2022/06/21 10:36:21;;;;;;;1.63;1.13;;;;;;;;;;5032025;28;20033;-67
2022/06/21 10:39:01;;;;;;;2.97;1.20;;;;;;;;;;5025575;28;20510;-68
2022/06/21 10:45:00;;;;;;;3.97;1.30;;;;;;;;;;5032527;28;20486;-68
2022/06/21 10:47:37;;;;;;;2.28;1.20;;;;;;;;;;5034782;28;20026;-68
2022/06/21 10:50:11;;;;;;;2.63;1.20;;;;;;;;;;5032275;28;20059;-66
2022/06/21 10:53:03;;;;;;;4.13;1.20;;;;;;;;;;5031819;28;20100;-68
2022/06/21 10:55:44;;;;;;;2.25;1.10;;;;;;;;;;5033311;28;20057;-68
2022/06/21 10:58:36;;;;;;;4.07;1.33;;;;;;;;;;5033208;28;20037;-67
2022/06/21 11:01:17;;;;;;;5.95;1.17;;;;;;;;;;5032882;28;20410;-59
2022/06/21 11:03:46;;;;;;;5.03;1.63;;;;;;;;;;5032958;28;20424;-67
2022/06/21 11:06:22;;;;;;;2.45;1.00;;;;;;;;;;5032096;28;20433;-67
2022/06/21 11:08:51;;;;;;;2.15;1.23;;;;;;;;;;5032845;28;20123;-68
2022/06/21 11:11:32;;;;;;;1.65;1.50;;;;;;;;;;5032020;28;20105;-68
2022/06/21 11:14:12;;;;;;;1.63;1.08;;;;;;;;;;5037715;28;20029;-68
2022/06/21 11:16:43;;;;;;;1.15;0.88;;;;;;;;;;5024899;28;20490;-68
2022/06/21 11:19:12;;;;;;;1.50;1.10;;;;;;;;;;5032315;28;20029;-67
2022/06/21 11:21:48;;;;;;;3.20;1.38;;;;;;;;;;5032254;28;20474;-68
2022/06/21 11:24:40;;;;;;;3.70;1.50;;;;;;;;;;5031994;28;20021;-68
2022/06/21 11:27:06;;;;;;;2.35;1.40;;;;;;;;;;5028801;28;20045;-68
2022/06/21 11:29:38;;;;;;;5.95;1.83;;;;;;;;;;5032521;28;20102;-67
2022/06/21 11:32:13;;;;;;;1.45;1.00;;;;;;;;;;5030314;28;20045;-58
2022/06/21 11:34:45;;;;;;;1.80;1.45;;;;;;;;;;5030719;28;20026;-67
2022/06/21 11:37:20;;;;;;;3.05;1.38;;;;;;;;;;5031887;28;20037;-68
2022/06/21 11:40:00;;;;;;;2.40;1.40;;;;;;;;;;5032129;28;20494;-68
2022/06/21 11:42:26;;;;;;;3.75;1.27;;;;;;;;;;5031491;28;20056;-65
2022/06/21 11:44:52;;;;;;;2.70;1.58;;;;;;;;;;5031847;28;20017;-67
2022/06/21 11:47:36;;;;;;;1.63;1.20;;;;;;;;;;5029759;28;20464;-67
2022/06/21 11:50:19;;;;;;;2.13;1.00;;;;;;;;;;5032066;28;20105;-58
2022/06/21 11:52:48;;;;;;;2.40;1.50;;;;;;;;;;5031998;28;20359;-67
2022/06/21 11:55:26;;;;;;;3.35;1.33;;;;;;;;;;5031391;28;20155;-69
2022/06/21 11:57:58;;;;;;;3.78;1.40;;;;;;;;;;5032149;28;20478;-68
2022/06/21 12:00:24;;;;;;;2.22;1.30;;;;;;;;;;5030388;28;20641;-67
2022/06/21 12:02:50;;;;;;;6.47;1.45;;;;;;;;;;5031759;28;20068;-68
2022/06/21 12:05:34;;;;;;;2.63;1.30;;;;;;;;;;5031136;28;20060;-67
2022/06/21 12:08:01;;;;;;;1.25;0.95;;;;;;;;;;5031889;28;20060;-68
2022/06/21 12:10:41;;;;;;;1.60;1.02;;;;;;;;;;5031337;28;20089;-68
2022/06/21 12:13:15;;;;;;;1.33;1.00;;;;;;;;;;5024406;28;20021;-67
2022/06/21 12:15:44;;;;;;;2.42;1.10;;;;;;;;;;5032421;28;20080;-67
2022/06/21 12:18:15;;;;;;;2.60;1.35;;;;;;;;;;5031338;28;20087;-67
2022/06/21 12:20:44;;;;;;;4.63;1.50;;;;;;;;;;5031662;28;20064;-68
2022/06/21 12:23:13;;;;;;;2.97;1.50;;;;;;;;;;5030514;28;20513;-67
2022/06/21 12:25:39;;;;;;;2.50;1.30;;;;;;;;;;5031720;28;20025;-66
2022/06/21 12:28:15;;;;;;;1.95;1.48;;;;;;;;;;5031315;28;20478;-55
2022/06/21 12:30:42;;;;;;;2.70;1.60;;;;;;;;;;5031143;28;20047;-68
2022/06/21 12:33:11;;;;;;;2.72;1.40;;;;;;;;;;5030078;28;20109;-58
2022/06/21 12:35:43;;;;;;;1.35;1.10;;;;;;;;;;5030971;28;20021;-67
2022/06/21 12:38:12;;;;;;;3.90;1.58;;;;;;;;;;5030508;28;20138;-67
2022/06/21 12:40:40;;;;;;;2.95;1.60;;;;;;;;;;5029513;28;20022;-68
2022/06/21 12:43:17;;;;;;;2.97;1.27;;;;;;;;;;5030534;28;20039;-59
2022/06/21 12:45:45;;;;;;;1.70;1.25;;;;;;;;;;5030692;28;20026;-68
2022/06/21 12:48:17;;;;;;;4.13;1.40;;;;;;;;;;5028707;28;20033;-67
2022/06/21 12:51:04;;;;;;;1.25;1.15;;;;;;;;;;5031657;28;20355;-67
2022/06/21 12:53:53;;;;;;;1.45;1.05;;;;;;;;;;5034693;28;20031;-68
2022/06/21 12:56:19;;;;;;;2.28;1.10;;;;;;;;;;5015027;28;20030;-68
2022/06/21 12:59:00;;;;;;;1.88;1.13;;;;;;;;;;5035372;28;20108;-68
2022/06/21 13:01:31;;;;;;;2.27;1.60;;;;;;;;;;5034316;28;20461;-68
2022/06/21 13:04:16;;;;;;;3.20;1.65;;;;;;;;;;5035659;28;20347;-68
2022/06/21 13:07:00;;;;;;;2.20;1.10;;;;;;;;;;5035002;28;20134;-68
2022/06/21 13:09:32;;;;;;;4.30;1.67;;;;;;;;;;5034217;28;20104;-68
2022/06/21 13:11:58;;;;;;;2.05;1.40;;;;;;;;;;5035164;28;20089;-68
2022/06/21 13:14:33;;;;;;;7.43;1.80;;;;;;;;;;5034003;28;20052;-67
2022/06/21 13:17:18;;;;;;;3.47;1.55;;;;;;;;;;5035215;28;20037;-68
2022/06/21 13:19:49;;;;;;;4.38;1.70;;;;;;;;;;5034709;28;20032;-68
2022/06/21 13:22:20;;;;;;;2.50;1.48;;;;;;;;;;5033701;28;20446;-67
2022/06/21 13:24:54;;;;;;;2.55;1.38;;;;;;;;;;5034597;28;20155;-68
2022/06/21 13:27:20;;;;;;;2.13;1.77;;;;;;;;;;5033659;28;20068;-68
2022/06/21 13:30:10;;;;;;;1.70;1.20;;;;;;;;;;5034802;28;20087;-68
2022/06/21 13:32:42;;;;;;;2.05;1.50;;;;;;;;;;5015403;28;20378;-68
2022/06/21 13:35:18;;;;;;;2.70;1.30;;;;;;;;;;5034199;28;20159;-57
2022/06/21 13:37:52;;;;;;;3.60;1.48;;;;;;;;;;5034483;28;20057;-68
2022/06/21 13:40:36;;;;;;;3.95;1.52;;;;;;;;;;5032413;28;20052;-68
2022/06/21 13:43:07;;;;;;;2.83;1.33;;;;;;;;;;5034229;28;20079;-66
2022/06/21 13:45:36;;;;;;;4.13;1.73;;;;;;;;;;5033763;28;20026;-67
2022/06/21 13:48:07;;;;;;;1.95;1.40;;;;;;;;;;5031910;28;20459;-68
2022/06/21 13:50:36;;;;;;;2.58;1.38;;;;;;;;;;5032623;28;20471;-67
2022/06/21 13:53:10;;;;;;;2.08;1.73;;;;;;;;;;5035745;28;20029;-68
2022/06/21 13:55:49;;;;;;;1.55;1.38;;;;;;;;;;5034077;28;20140;-68
2022/06/21 13:58:15;;;;;;;3.80;1.95;;;;;;;;;;5033455;28;20039;-68
2022/06/21 14:00:55;;;;;;;2.15;1.50;;;;;;;;;;5033771;28;20025;-67
2022/06/21 14:03:30;;;;;;;2.85;2.17;;;;;;;;;;5031684;28;20030;-67
2022/06/21 14:06:01;;;;;;;3.22;1.67;;;;;;;;;;5027661;28;20036;-68
2022/06/21 14:08:43;;;;;;;1.60;1.50;;;;;;;;;;5033217;28;20057;-67
2022/06/21 14:11:21;;;;;;;2.05;1.38;;;;;;;;;;5033742;28;20100;-59
2022/06/21 14:13:52;;;;;;;1.88;1.40;;;;;;;;;;5032740;28;20033;-68
2022/06/21 14:16:25;;;;;;;1.95;1.33;;;;;;;;;;5032740;28;20029;-68
2022/06/21 14:18:52;;;;;;;2.08;1.50;;;;;;;;;;5033746;28;20040;-68
2022/06/21 14:21:24;;;;;;;2.30;1.58;;;;;;;;;;5032979;28;20484;-68
2022/06/21 14:24:05;;;;;;;9.23;1.80;;;;;;;;;;5033630;28;20493;-68
2022/06/21 14:26:35;;;;;;;3.25;1.60;;;;;;;;;;5032984;28;20052;-68
2022/06/21 14:29:19;;;;;;;2.90;1.67;;;;;;;;;;5033643;28;20417;-68
2022/06/21 14:31:45;;;;;;;2.47;1.33;;;;;;;;;;5033230;28;20550;-68
2022/06/21 14:34:22;;;;;;;2.45;1.52;;;;;;;;;;5033065;28;20104;-56
2022/06/21 14:36:52;;;;;;;3.83;1.80;;;;;;;;;;5033468;28;20033;-67
2022/06/21 14:39:27;;;;;;;6.47;1.73;;;;;;;;;;5027110;28;20034;-69
2022/06/21 14:42:13;;;;;;;4.53;1.73;;;;;;;;;;5024402;28;20112;-65
2022/06/21 14:44:41;;;;;;;4.70;1.58;;;;;;;;;;5029477;28;20402;-65
2022/06/21 14:47:26;;;;;;;4.65;1.75;;;;;;;;;;5026206;28;20087;-71
2022/06/21 14:50:10;;;;;;;3.00;1.70;;;;;;;;;;5027703;28;20072;-68
2022/06/21 14:52:39;;;;;;;1.40;1.30;;;;;;;;;;5024138;28;20028;-67
2022/06/21 14:55:11;;;;;;;2.78;1.50;;;;;;;;;;5019981;28;20046;-72
2022/06/21 14:57:40;;;;;;;3.13;1.95;;;;;;;;;;5028440;28;20045;-70
2022/06/21 15:00:15;;;;;;;3.67;2.15;;;;;;;;;;5029637;28;20037;-74
2022/06/21 15:03:06;;;;;;;1.48;1.38;;;;;;;;;;5026337;28;20037;-72
2022/06/21 15:05:42;;;;;;;2.85;1.70;;;;;;;;;;5023351;28;20029;-70
2022/06/21 15:08:14;;;;;;;2.97;1.52;;;;;;;;;;5033581;28;20044;-71
2022/06/21 15:10:43;;;;;;;2.20;1.67;;;;;;;;;;5033032;28;20041;-66
2022/06/21 15:13:15;;;;;;;3.00;1.77;;;;;;;;;;5023872;28;20106;-55
2022/06/21 15:15:44;;;;;;;6.05;2.13;;;;;;;;;;5032271;28;20038;-61
2022/06/21 15:18:25;;;;;;;3.00;1.67;;;;;;;;;;5024657;28;20363;-66
2022/06/21 15:21:05;;;;;;;2.80;2.13;;;;;;;;;;5032104;28;20535;-61
2022/06/21 15:23:31;;;;;;;1.77;1.48;;;;;;;;;;5031483;28;20036;-66
2022/06/21 15:26:00;;;;;;;2.45;2.25;;;;;;;;;;5031984;28;20474;-62
2022/06/21 15:28:33;;;;;;;4.18;2.03;;;;;;;;;;5031879;28;20033;-64